createdAt,value
2023-03-05T00:00:00.841Z,6.55
2023-03-05T00:02:28.611Z,5.80
2023-03-05T00:04:56.754Z,7.72
2023-03-05T00:07:24.557Z,5.93
2023-03-05T00:09:52.350Z,7.10
2023-03-05T00:12:20.094Z,4.68
2023-03-05T00:14:47.800Z,5.30
2023-03-05T00:17:16.919Z,4.10
2023-03-05T00:19:44.713Z,5.97
2023-03-05T00:22:12.434Z,6.10
2023-03-05T00:24:40.166Z,11.02
2023-03-05T00:27:07.920Z,7.10
2023-03-05T00:29:35.623Z,7.30
2023-03-05T00:32:03.406Z,5.90
2023-03-05T00:34:32.560Z,8.60
2023-03-05T00:37:00.290Z,8.13
2023-03-05T00:39:29.003Z,6.10
2023-03-05T00:41:56.833Z,7.38
2023-03-05T00:44:24.626Z,6.07
2023-03-05T00:46:52.554Z,6.38
2023-03-05T00:49:20.357Z,6.20
2023-03-05T00:51:49.481Z,5.63
2023-03-05T00:54:17.255Z,6.55
2023-03-05T00:56:45.017Z,8.52
2023-03-05T00:59:12.804Z,7.80
2023-03-05T01:01:40.897Z,5.82
2023-03-05T01:04:08.885Z,13.60
2023-03-05T01:06:36.667Z,9.70
2023-03-05T01:09:05.792Z,6.72
2023-03-05T01:11:33.629Z,10.02
2023-03-05T01:14:01.438Z,9.77
2023-03-05T01:16:29.399Z,9.13
2023-03-05T01:18:57.160Z,7.88
2023-03-05T01:21:24.857Z,5.60
2023-03-05T01:23:52.574Z,7.13
2023-03-05T01:26:21.701Z,11.48
2023-03-05T01:28:49.440Z,5.03
2023-03-05T01:31:17.368Z,8.07
2023-03-05T01:33:45.179Z,6.40
2023-03-05T01:36:16.811Z,3.92
2023-03-05T01:38:46.205Z,8.00
2023-03-05T01:41:16.231Z,7.68
2023-03-05T01:43:52.870Z,4.85
2023-03-05T01:46:30.443Z,6.43
2023-03-05T01:49:04.682Z,7.18
2023-03-05T01:51:37.968Z,9.73
2023-03-05T01:54:08.284Z,4.40
2023-03-05T01:56:36.537Z,7.63
2023-03-05T01:59:05.757Z,4.93
2023-03-05T02:01:39.691Z,6.53
2023-03-05T02:04:09.568Z,9.00
2023-03-05T02:06:38.220Z,6.30
2023-03-05T02:09:06.272Z,9.38
2023-03-05T02:11:34.772Z,10.40
2023-03-05T02:14:03.345Z,7.50
2023-03-05T02:16:36.833Z,4.68
2023-03-05T02:21:40.211Z,8.43
2023-03-05T02:24:08.772Z,6.75
2023-03-05T02:26:36.529Z,7.72
2023-03-05T02:29:08.941Z,8.73
2023-03-05T02:31:38.989Z,7.75
2023-03-05T02:34:07.247Z,6.50
2023-03-05T02:36:35.182Z,11.88
2023-03-05T02:39:04.955Z,7.75
2023-03-05T02:41:32.735Z,9.68
2023-03-05T02:44:00.536Z,14.20
2023-03-05T02:46:28.314Z,10.57
2023-03-05T02:48:56.111Z,7.25
2023-03-05T02:51:23.833Z,9.68
2023-03-05T02:53:51.650Z,7.05
2023-03-05T02:56:20.759Z,8.23
2023-03-05T02:58:48.482Z,8.90
2023-03-05T03:01:16.317Z,7.13
2023-03-05T03:03:44.073Z,6.13
2023-03-05T03:06:11.768Z,7.03
2023-03-05T03:08:39.522Z,9.13
2023-03-05T03:11:08.304Z,7.40
2023-03-05T03:13:37.404Z,9.07
2023-03-05T03:16:07.227Z,7.22
2023-03-05T03:18:35.190Z,9.27
2023-03-05T03:21:02.969Z,8.35
2023-03-05T03:23:31.051Z,8.15
2023-03-05T03:25:59.185Z,9.18
2023-03-05T03:28:27.092Z,8.13
2023-03-05T03:30:56.300Z,7.07
2023-03-05T03:33:24.335Z,11.10
2023-03-05T03:35:52.166Z,5.25
2023-03-05T03:38:19.947Z,8.90
2023-03-05T03:40:47.748Z,9.48
2023-03-05T03:43:15.512Z,10.00
2023-03-05T03:45:43.746Z,8.45
2023-03-05T03:48:13.151Z,11.18
2023-03-05T03:50:41.655Z,9.57
2023-03-05T03:53:09.738Z,11.35
2023-03-05T03:55:37.493Z,9.55
2023-03-05T03:58:05.364Z,7.30
2023-03-05T04:00:33.167Z,7.25
2023-03-05T04:03:01.148Z,7.63
2023-03-05T04:05:30.643Z,11.25
2023-03-05T04:07:59.943Z,7.75
2023-03-05T04:10:27.766Z,9.20
2023-03-05T04:12:55.527Z,12.75
2023-03-05T04:15:23.544Z,8.15
2023-03-05T04:17:51.276Z,8.90
2023-03-05T04:20:19.082Z,10.10
2023-03-05T04:22:48.146Z,7.50
2023-03-05T04:25:16.047Z,12.60
2023-03-05T04:27:43.833Z,9.38
2023-03-05T04:30:15.611Z,11.30
2023-03-05T04:32:43.733Z,7.00
2023-03-05T04:35:11.600Z,6.30
2023-03-05T04:37:39.399Z,9.95
2023-03-05T04:40:10.156Z,11.93
2023-03-05T04:42:38.362Z,8.52
2023-03-05T04:45:07.748Z,8.20
2023-03-05T04:47:35.600Z,10.13
2023-03-05T04:50:03.636Z,10.05
2023-03-05T04:52:31.504Z,8.10
2023-03-05T04:54:59.287Z,10.90
2023-03-05T04:57:28.408Z,11.57
2023-03-05T04:59:56.174Z,7.93
2023-03-05T05:02:23.945Z,7.45
2023-03-05T05:04:53.931Z,7.60
2023-03-05T05:07:21.816Z,9.77
2023-03-05T05:09:49.648Z,10.90
2023-03-05T05:12:17.532Z,8.77
2023-03-05T05:14:46.772Z,10.35
2023-03-05T05:17:14.590Z,8.95
2023-03-05T05:19:42.624Z,11.00
2023-03-05T05:22:10.538Z,14.05
2023-03-05T05:24:38.372Z,6.38
2023-03-05T05:27:06.240Z,11.00
2023-03-05T05:29:34.050Z,7.25
2023-03-05T05:32:03.163Z,7.30
2023-03-05T05:34:30.930Z,9.10
2023-03-05T05:36:58.639Z,8.75
2023-03-05T05:39:26.444Z,7.15
2023-03-05T05:41:54.857Z,12.48
2023-03-05T05:44:22.608Z,6.50
2023-03-05T05:46:50.344Z,5.25
2023-03-05T05:49:19.523Z,12.45
2023-03-05T05:51:47.307Z,9.43
2023-03-05T05:54:15.858Z,8.63
2023-03-05T05:56:43.660Z,8.75
2023-03-05T05:59:11.759Z,6.80
2023-03-05T06:01:39.584Z,11.68
2023-03-05T06:04:07.389Z,7.43
2023-03-05T06:06:36.561Z,9.02
2023-03-05T06:09:04.850Z,7.38
2023-03-05T06:11:34.015Z,8.77
2023-03-05T06:14:02.895Z,11.68
2023-03-05T06:16:31.056Z,9.65
2023-03-05T06:18:58.955Z,5.60
2023-03-05T06:21:27.152Z,5.20
2023-03-05T06:23:56.293Z,9.07
2023-03-05T06:26:24.109Z,8.20
2023-03-05T06:28:52.520Z,7.05
2023-03-05T06:31:22.409Z,7.20
2023-03-05T06:33:50.815Z,9.63
2023-03-05T06:36:20.581Z,7.65
2023-03-05T06:38:49.128Z,8.45
2023-03-05T06:41:21.265Z,9.07
2023-03-05T06:43:50.136Z,4.97
2023-03-05T06:46:20.099Z,7.38
2023-03-05T06:48:48.573Z,8.15
2023-03-05T06:51:18.414Z,7.30
2023-03-05T06:53:49.244Z,8.02
2023-03-05T06:56:19.731Z,8.20
2023-03-05T06:58:49.043Z,10.23
2023-03-05T07:01:17.655Z,7.57
2023-03-05T07:03:45.480Z,5.90
2023-03-05T07:06:15.839Z,11.20
2023-03-05T07:08:44.725Z,6.15
2023-03-05T07:11:14.477Z,7.10
2023-03-05T07:13:44.456Z,8.88
2023-03-05T07:16:16.434Z,5.82
2023-03-05T07:18:44.308Z,8.98
2023-03-05T07:21:15.928Z,8.98
2023-03-05T07:23:43.724Z,7.53
2023-03-05T07:26:12.397Z,6.22
2023-03-05T07:28:40.756Z,9.70
2023-03-05T07:31:13.526Z,7.63
2023-03-05T07:33:41.429Z,10.45
2023-03-05T07:36:09.821Z,10.40
2023-03-05T07:38:38.116Z,8.70
2023-03-05T07:41:07.435Z,11.15
2023-03-05T07:43:35.171Z,17.85
2023-03-05T07:46:05.669Z,7.10
2023-03-05T07:48:34.977Z,7.78
2023-03-05T07:51:03.393Z,9.95
2023-03-05T07:53:31.427Z,9.27
2023-03-05T07:55:59.202Z,5.90
2023-03-05T07:58:27.327Z,5.93
2023-03-05T08:00:55.127Z,6.00
2023-03-05T08:03:22.900Z,4.50
2023-03-05T08:05:51.979Z,7.35
2023-03-05T08:08:19.824Z,8.05
2023-03-05T08:10:47.587Z,6.65
2023-03-05T08:13:15.400Z,10.05
2023-03-05T08:15:43.212Z,9.07
2023-03-05T08:18:11.043Z,5.93
2023-03-05T08:20:38.809Z,6.85
2023-03-05T08:23:07.894Z,7.65
2023-03-05T08:25:35.696Z,8.40
2023-03-05T08:28:03.460Z,7.15
2023-03-05T08:30:31.261Z,7.65
2023-03-05T08:32:58.963Z,6.55
2023-03-05T08:35:26.697Z,6.13
2023-03-05T08:37:54.465Z,4.85
2023-03-05T08:40:23.608Z,12.02
2023-03-05T08:42:52.240Z,7.72
2023-03-05T08:45:20.011Z,7.90
2023-03-05T08:47:47.793Z,4.63
2023-03-05T08:50:15.536Z,5.93
2023-03-05T08:52:43.237Z,7.90
2023-03-05T08:55:12.503Z,9.55
2023-03-05T08:57:41.750Z,6.57
2023-03-05T09:00:12.555Z,6.82
2023-03-05T09:02:40.485Z,5.72
2023-03-05T09:05:09.280Z,5.43
2023-03-05T09:07:37.923Z,6.97
2023-03-05T09:10:06.867Z,12.75
2023-03-05T09:12:34.558Z,11.65
2023-03-05T09:15:03.753Z,8.60
2023-03-05T09:17:31.468Z,10.27
2023-03-05T09:19:59.161Z,7.43
2023-03-05T09:22:26.977Z,7.32
2023-03-05T09:24:54.688Z,12.05
2023-03-05T09:27:22.419Z,6.47
2023-03-05T09:29:50.821Z,11.52
2023-03-05T09:32:19.903Z,8.73
2023-03-05T09:34:47.703Z,6.55
2023-03-05T09:37:15.449Z,6.50
2023-03-05T09:39:43.205Z,7.15
2023-03-05T09:42:29.834Z,11.35
2023-03-05T09:45:12.068Z,9.25
2023-03-05T09:47:54.132Z,8.65
2023-03-05T09:50:36.005Z,7.65
2023-03-05T09:53:09.028Z,7.55
2023-03-05T09:55:40.888Z,6.93
2023-03-05T09:58:14.158Z,8.70
2023-03-05T10:00:45.226Z,8.13
2023-03-05T10:03:20.849Z,6.97
2023-03-05T10:06:01.552Z,8.07
2023-03-05T10:08:41.381Z,12.95
2023-03-05T10:11:19.974Z,7.70
2023-03-05T10:13:48.725Z,8.18
2023-03-05T10:16:37.495Z,7.18
2023-03-05T10:19:15.910Z,7.88
2023-03-05T10:21:51.430Z,7.40
2023-03-05T10:24:27.936Z,7.35
2023-03-05T10:27:04.289Z,7.72
2023-03-05T10:29:56.275Z,8.90
2023-03-05T10:32:37.693Z,8.07
2023-03-05T10:35:23.454Z,8.90
2023-03-05T10:38:15.111Z,9.70
2023-03-05T10:40:48.001Z,4.82
2023-03-05T10:43:25.088Z,5.95
2023-03-05T10:45:55.148Z,6.53
2023-03-05T10:48:32.145Z,9.93
2023-03-05T10:51:12.060Z,6.55
2023-03-05T10:53:50.545Z,6.07
2023-03-05T10:56:22.635Z,4.53
2023-03-05T10:58:52.729Z,5.95
2023-03-05T11:01:23.037Z,5.85
2023-03-05T11:03:54.340Z,5.70
2023-03-05T11:06:35.699Z,5.55
2023-03-05T11:09:29.137Z,4.72
2023-03-05T11:12:15.499Z,6.38
2023-03-05T11:14:45.621Z,6.05
2023-03-05T11:17:29.466Z,11.70
2023-03-05T11:22:27.040Z,4.95
2023-03-05T11:25:14.173Z,8.98
2023-03-05T11:27:54.345Z,11.48
2023-03-05T11:30:26.628Z,4.70
2023-03-05T11:33:10.432Z,7.25
2023-03-05T11:35:40.894Z,5.78
2023-03-05T11:38:19.646Z,10.15
2023-03-05T11:40:48.228Z,5.45
2023-03-05T11:43:18.312Z,6.20
2023-03-05T11:45:48.475Z,6.03
2023-03-05T11:48:21.244Z,8.00
2023-03-05T11:50:53.532Z,4.55
2023-03-05T11:53:28.281Z,8.05
2023-03-05T11:56:00.327Z,7.35
2023-03-05T11:58:33.300Z,8.20
2023-03-05T12:01:04.063Z,8.23
2023-03-05T12:03:34.710Z,4.22
2023-03-05T12:06:11.984Z,7.45
2023-03-05T12:08:45.628Z,8.63
2023-03-05T12:11:18.941Z,5.32
2023-03-05T12:13:50.230Z,8.32
2023-03-05T12:16:34.443Z,5.13
2023-03-05T12:19:16.836Z,7.80
2023-03-05T12:21:50.508Z,4.35
2023-03-05T12:24:39.944Z,5.07
2023-03-05T12:27:14.901Z,4.57
2023-03-05T12:29:50.784Z,4.65
2023-03-05T12:33:01.286Z,11.00
2023-03-05T12:35:31.760Z,7.22
2023-03-05T12:38:28.175Z,6.00
2023-03-05T12:41:35.679Z,5.63
2023-03-05T12:44:23.766Z,8.90
2023-03-05T12:47:19.222Z,7.90
2023-03-05T12:49:49.065Z,7.85
2023-03-05T12:52:25.119Z,4.88
2023-03-05T12:55:21.383Z,4.53
2023-03-05T12:57:54.589Z,6.03
2023-03-05T13:00:28.426Z,6.35
2023-03-05T13:02:59.797Z,7.90
2023-03-05T13:05:31.385Z,3.65
2023-03-05T13:08:15.487Z,5.65
2023-03-05T13:10:43.801Z,6.43
2023-03-05T13:13:15.916Z,4.60
2023-03-05T13:15:48.304Z,5.65
2023-03-05T13:18:21.415Z,5.65
2023-03-05T13:20:52.142Z,4.38
2023-03-05T13:23:23.539Z,5.53
2023-03-05T13:26:03.528Z,5.65
2023-03-05T13:28:32.624Z,8.38
2023-03-05T13:31:04.600Z,3.80
2023-03-05T13:33:34.339Z,6.60
2023-03-05T13:36:02.777Z,3.55
2023-03-05T13:38:35.687Z,5.38
2023-03-05T13:41:06.221Z,4.65
2023-03-05T13:43:33.972Z,3.35
2023-03-05T13:46:03.352Z,6.32
2023-03-05T13:48:31.145Z,6.90
2023-03-05T13:50:59.374Z,5.35
2023-03-05T13:53:28.868Z,4.03
2023-03-05T13:55:59.595Z,4.90
2023-03-05T13:58:52.332Z,7.63
2023-03-05T14:01:30.074Z,5.70
2023-03-05T14:04:00.685Z,6.68
2023-03-05T14:06:30.970Z,9.10
2023-03-05T14:09:06.773Z,5.53
2023-03-05T14:11:36.714Z,5.13
2023-03-05T14:14:10.698Z,5.20
2023-03-05T14:16:39.920Z,5.50
2023-03-05T14:19:09.146Z,10.13
2023-03-05T14:21:48.133Z,4.72
2023-03-05T14:24:22.756Z,5.25
2023-03-05T14:26:52.949Z,5.03
2023-03-05T14:29:24.222Z,4.15
2023-03-05T14:31:55.731Z,6.53
2023-03-05T14:34:28.047Z,6.78
2023-03-05T14:36:59.017Z,7.18
2023-03-05T14:39:39.628Z,6.95
2023-03-05T14:42:27.890Z,5.28
2023-03-05T14:44:57.958Z,4.32
2023-03-05T14:47:28.308Z,7.70
2023-03-05T14:49:56.039Z,4.28
2023-03-05T14:52:26.044Z,6.63
2023-03-05T14:54:54.817Z,6.53
2023-03-05T14:57:24.843Z,4.75
2023-03-05T14:59:52.623Z,6.63
2023-03-05T15:02:22.022Z,6.13
2023-03-05T15:04:51.254Z,4.97
2023-03-05T15:07:21.571Z,9.90
2023-03-05T15:09:49.332Z,6.35
2023-03-05T15:12:18.264Z,8.95
2023-03-05T15:14:46.045Z,27.63
2023-03-05T15:17:20.956Z,31.05
2023-03-05T15:19:49.348Z,34.30
2023-03-05T15:22:18.648Z,21.27
2023-03-05T15:24:46.720Z,9.02
2023-03-05T15:27:14.632Z,6.43
2023-03-05T15:29:42.484Z,7.80
2023-03-05T15:32:10.481Z,6.53
2023-03-05T15:34:38.351Z,10.32
2023-03-05T15:37:06.144Z,4.35
2023-03-05T15:39:35.194Z,6.30
2023-03-05T15:42:04.487Z,5.50
2023-03-05T15:44:33.657Z,6.72
2023-03-05T15:47:01.355Z,5.88
2023-03-05T15:49:29.209Z,6.22
2023-03-05T15:51:57.026Z,6.93
2023-03-05T15:54:25.217Z,10.10
2023-03-05T15:56:54.618Z,5.43
2023-03-05T15:59:22.460Z,8.45
2023-03-05T16:01:52.087Z,6.10
2023-03-05T16:04:20.187Z,4.78
2023-03-05T16:06:50.863Z,4.95
2023-03-05T16:09:21.782Z,5.68
2023-03-05T16:11:51.433Z,6.47
2023-03-05T16:14:23.356Z,7.03
2023-03-05T16:16:52.260Z,6.50
2023-03-05T16:19:21.195Z,4.60
2023-03-05T16:21:49.408Z,6.07
2023-03-05T16:24:17.142Z,5.57
2023-03-05T16:26:44.887Z,5.78
2023-03-05T16:29:13.193Z,7.55
2023-03-05T16:31:43.196Z,8.02
2023-03-05T16:34:13.937Z,6.43
2023-03-05T16:36:47.061Z,4.78
2023-03-05T16:39:14.933Z,6.45
2023-03-05T16:41:42.710Z,5.18
2023-03-05T16:44:10.969Z,7.80
2023-03-05T16:46:41.378Z,7.43
2023-03-05T16:49:11.255Z,7.95
2023-03-05T16:51:39.185Z,5.03
2023-03-05T16:54:09.641Z,7.35
2023-03-05T16:56:37.984Z,7.43
2023-03-05T16:59:05.768Z,8.00
2023-03-05T17:01:33.801Z,6.40
2023-03-05T17:04:02.204Z,6.82
2023-03-05T17:06:32.597Z,8.68
2023-03-05T17:09:00.669Z,7.13
2023-03-05T17:11:28.483Z,5.68
2023-03-05T17:13:56.241Z,7.10
2023-03-05T17:16:24.924Z,9.20
2023-03-05T17:18:52.838Z,8.15
2023-03-05T17:21:20.556Z,5.82
2023-03-05T17:23:49.699Z,6.25
2023-03-05T17:26:21.839Z,6.25
2023-03-05T17:28:49.911Z,5.60
2023-03-05T17:31:17.706Z,6.57
2023-03-05T17:33:45.545Z,5.53
2023-03-05T17:36:18.390Z,5.50
2023-03-05T17:38:47.612Z,5.75
2023-03-05T17:41:18.350Z,7.32
2023-03-05T17:43:46.481Z,6.90
2023-03-05T17:46:14.887Z,5.63
2023-03-05T17:48:43.020Z,11.02
2023-03-05T17:51:13.638Z,10.52
2023-03-05T17:53:41.554Z,8.68
2023-03-05T17:56:10.643Z,8.88
2023-03-05T17:58:39.954Z,7.15
2023-03-05T18:01:08.656Z,6.60
2023-03-05T18:03:37.190Z,5.30
2023-03-05T18:06:05.349Z,7.13
2023-03-05T18:08:33.285Z,6.18
2023-03-05T18:11:01.281Z,6.55
2023-03-05T18:13:29.180Z,7.65
2023-03-05T18:16:00.387Z,7.35
2023-03-05T18:18:28.389Z,7.72
2023-03-05T18:20:56.696Z,8.35
2023-03-05T18:23:24.445Z,8.02
2023-03-05T18:25:52.239Z,5.35
2023-03-05T18:28:20.104Z,5.90
2023-03-05T18:30:48.920Z,8.50
2023-03-05T18:33:20.586Z,6.47
2023-03-05T18:35:51.944Z,9.95
2023-03-05T18:38:20.415Z,6.63
2023-03-05T18:40:51.102Z,8.75
2023-03-05T18:43:20.407Z,8.07
2023-03-05T18:45:48.780Z,5.43
2023-03-05T18:48:18.171Z,6.97
2023-03-05T18:50:46.405Z,9.13
2023-03-05T18:53:14.381Z,25.27
2023-03-05T18:55:42.841Z,26.27
2023-03-05T18:58:13.577Z,21.42
2023-03-05T19:00:43.725Z,19.05
2023-03-05T19:03:12.131Z,12.88
2023-03-05T19:05:41.812Z,10.60
2023-03-05T19:08:09.956Z,9.75
2023-03-05T19:10:37.767Z,11.32
2023-03-05T19:13:43.780Z,11.05
2023-03-05T19:16:13.717Z,12.75
2023-03-05T19:19:19.679Z,11.95
2023-03-05T19:21:53.420Z,9.13
2023-03-05T19:26:50.425Z,6.60
2023-03-05T19:29:18.212Z,9.65
2023-03-05T19:31:45.958Z,10.50
2023-03-05T19:34:13.743Z,9.85
2023-03-05T19:36:41.495Z,8.35
2023-03-05T19:39:10.719Z,10.68
2023-03-05T19:41:38.659Z,8.88
2023-03-05T19:44:07.094Z,7.47
2023-03-05T19:46:34.844Z,19.10
2023-03-05T19:49:02.619Z,7.93
2023-03-05T19:51:30.443Z,10.25
2023-03-05T19:53:58.195Z,10.13
2023-03-05T19:56:27.432Z,4.68
2023-03-05T19:58:55.222Z,9.68
2023-03-05T20:01:25.918Z,7.82
2023-03-05T20:03:55.018Z,10.77
2023-03-05T20:06:23.600Z,7.22
2023-03-05T20:08:51.487Z,5.88
2023-03-05T20:11:21.077Z,10.38
2023-03-05T20:13:50.789Z,9.23
2023-03-05T20:16:20.110Z,6.93
2023-03-05T20:18:52.518Z,6.38
2023-03-05T20:21:23.133Z,7.93
2023-03-05T20:23:51.242Z,6.10
2023-03-05T20:26:19.577Z,6.78
2023-03-05T20:28:47.382Z,7.10
2023-03-05T20:31:19.239Z,9.02
2023-03-05T20:33:47.106Z,7.70
2023-03-05T20:36:14.944Z,4.22
2023-03-05T20:38:45.201Z,6.75
2023-03-05T20:41:15.011Z,6.97
2023-03-05T20:43:44.767Z,9.68
2023-03-05T20:46:18.881Z,7.93
2023-03-05T20:48:49.467Z,11.02
2023-03-05T20:51:20.640Z,11.70
2023-03-05T20:53:48.540Z,11.60
2023-03-05T20:56:16.592Z,9.65
2023-03-05T20:58:44.581Z,12.32
2023-03-05T21:01:12.601Z,8.82
2023-03-05T21:03:42.073Z,10.60
2023-03-05T21:06:09.874Z,12.60
2023-03-05T21:08:37.704Z,12.00
2023-03-05T21:11:07.540Z,10.75
2023-03-05T21:13:38.702Z,11.27
2023-03-05T21:16:11.639Z,13.02
2023-03-05T21:18:39.423Z,11.18
2023-03-05T21:21:09.145Z,10.10
2023-03-05T21:23:37.069Z,11.38
2023-03-05T21:26:05.074Z,9.02
2023-03-05T21:28:33.145Z,11.23
2023-03-05T21:31:07.962Z,14.77
2023-03-05T21:33:36.160Z,14.70
2023-03-05T21:36:04.560Z,13.55
2023-03-05T21:38:34.668Z,11.07
2023-03-05T21:41:03.408Z,8.70
2023-03-05T21:43:32.082Z,12.15
2023-03-05T21:46:03.066Z,12.02
2023-03-05T21:48:31.575Z,14.85
2023-03-05T21:51:00.297Z,15.73
2023-03-05T21:53:28.052Z,21.92
2023-03-05T21:56:31.038Z,15.63
2023-03-05T21:59:00.586Z,14.43
2023-03-05T22:01:28.410Z,10.95
2023-03-05T22:03:56.178Z,13.80
2023-03-05T22:06:23.959Z,16.73
2023-03-05T22:08:51.768Z,16.40
2023-03-05T22:11:20.824Z,10.73
2023-03-05T22:13:48.732Z,16.52
2023-03-05T22:16:24.317Z,17.48
2023-03-05T22:18:52.696Z,18.65
2023-03-05T22:21:22.995Z,19.83
2023-03-05T22:23:50.836Z,20.75
2023-03-05T22:26:18.592Z,14.45
2023-03-05T22:28:46.394Z,11.63
2023-03-05T22:31:22.762Z,16.00
2023-03-05T22:33:50.937Z,16.08
2023-03-05T22:36:18.855Z,15.02
2023-03-05T22:38:47.066Z,22.77
2023-03-05T22:41:16.684Z,16.35
2023-03-05T22:43:44.444Z,16.08
2023-03-05T22:46:14.010Z,16.73
2023-03-05T22:48:43.982Z,16.00
2023-03-05T22:51:12.584Z,18.98
2023-03-05T22:53:40.996Z,24.88
2023-03-05T22:56:09.844Z,11.60
2023-03-05T22:58:38.104Z,13.63
2023-03-05T23:01:13.088Z,16.05
2023-03-05T23:03:41.539Z,17.98
2023-03-05T23:06:11.488Z,16.20
2023-03-05T23:08:39.277Z,16.73
2023-03-05T23:11:11.314Z,16.80
2023-03-05T23:13:39.164Z,15.45
2023-03-05T23:16:07.697Z,16.30
2023-03-05T23:18:35.512Z,18.75
2023-03-05T23:21:03.219Z,17.50
2023-03-05T23:23:32.302Z,18.88
2023-03-05T23:26:00.299Z,18.90
2023-03-05T23:28:28.179Z,16.90
2023-03-05T23:30:55.914Z,20.33
2023-03-05T23:33:24.495Z,14.13
2023-03-05T23:35:54.548Z,15.18
2023-03-05T23:38:23.115Z,12.45
2023-03-05T23:40:54.261Z,16.73
2023-03-05T23:43:24.527Z,20.55
2023-03-05T23:45:55.013Z,18.80
2023-03-05T23:48:23.560Z,20.10
2023-03-05T23:50:51.608Z,21.15
2023-03-05T23:53:21.428Z,18.77
2023-03-05T23:55:49.536Z,15.55
2023-03-05T23:58:20.261Z,20.48
